Portada
METAR-TAF:

METAR-TAF

Aeropuertos :

Aeropuerto de Gibraltar

Gibraltar, Gibraltar

latitud: 36-09N, longitud: 005-21W, altitud: 5 m

Observación

El informe se hizo hace 43 minutos, a las 06:50 UTC
Viento 8 kt del suroeste
Temperatura 22°C
Humedad 73%
Presión 1014 hPa
Visibilidad 10 km o más
sin nubes por debajo de 1500 m y sin presencia de cumulonimbus.

METAR: LXGB 210650Z 23008KT CAVOK 22/17 Q1014

Hora: 09:33 (07:33 UTC)

Pronóstico

El informe se hizo hace 2 horas y 51 minutos, a las 04:42 UTC
Pronóstico válido del 21 a las 06 UTC al 21 a las 15 UTC
Viento 8 kt del oeste-suroeste
Visibilidad 10 km o más
Escasas nubes a una altura de 2500 ft
Probabilidad 40% :
Temporalmente
del 21 a las 09 UTC al 21 a las 15 UTC
Viento 15 kt del sur-suroeste con ráfagas de 25 kt

TAF: LXGB 210442Z 2106/2115 25008KT 9999 FEW025 PROB40 TEMPO 2109/2115 20015G25KT 520001

Observaciones y pronósticos meteorológicos de más de 4000 aeropuertos (mensajes METAR y TAF).

Los puntos amarillos y rojos representan las estaciones disponibles.

Ponga el ratón en el punto deseado para ver el nombre de la estación.

Haga clic para ver las observaciones y los pronósticos meteorológicos.

Para cambiar el mapa : haga clic en los botones verdes con una cruz de color negro para hacer un zoom, en el botón verde con un guión para alejar o en las flechas verdes para mapas adyacentes.


METAR-TAF: